sensor_id;sensor_type;location;lat;lon;timestamp;temperature;humidity
40053;DHT22;25758;48.200;16.338;2023-06-26T05:00:07;20.40;99.90
40053;DHT22;25758;48.200;16.338;2023-06-26T05:53:24;21.00;99.90
40053;DHT22;25758;48.200;16.338;2023-06-26T05:55:52;21.10;99.90
40053;DHT22;25758;48.200;16.338;2023-06-26T05:58:20;21.10;99.90
40053;DHT22;25758;48.200;16.338;2023-06-26T06:00:46;21.10;99.90
40053;DHT22;25758;48.200;16.338;2023-06-26T06:03:12;21.10;99.90
40053;DHT22;25758;48.200;16.338;2023-06-26T06:05:38;21.20;99.90
40053;DHT22;25758;48.200;16.338;2023-06-26T06:08:11;21.20;99.90
40053;DHT22;25758;48.200;16.338;2023-06-26T06:10:37;21.20;99.90
40053;DHT22;25758;48.200;16.338;2023-06-26T06:13:11;21.20;99.90
40053;DHT22;25758;48.200;16.338;2023-06-26T06:15:38;21.30;99.90
40053;DHT22;25758;48.200;16.338;2023-06-26T06:21:22;21.30;99.90
40053;DHT22;25758;48.200;16.338;2023-06-26T06:26:58;21.40;99.90
40053;DHT22;25758;48.200;16.338;2023-06-26T06:30:10;21.50;99.90
40053;DHT22;25758;48.200;16.338;2023-06-26T06:42:29;21.60;99.90
40053;DHT22;25758;48.200;16.338;2023-06-26T06:45:29;21.70;99.90
40053;DHT22;25758;48.200;16.338;2023-06-26T06:47:55;21.70;99.90
40053;DHT22;25758;48.200;16.338;2023-06-26T06:50:21;21.80;99.90
40053;DHT22;25758;48.200;16.338;2023-06-26T06:52:46;21.80;99.90
40053;DHT22;25758;48.200;16.338;2023-06-26T06:55:12;21.80;99.90
40053;DHT22;25758;48.200;16.338;2023-06-26T06:57:39;21.90;99.90
40053;DHT22;25758;48.200;16.338;2023-06-26T07:00:12;21.90;99.90
40053;DHT22;25758;48.200;16.338;2023-06-26T07:02:41;22.00;99.90
40053;DHT22;25758;48.200;16.338;2023-06-26T07:05:08;22.10;99.90
40053;DHT22;25758;48.200;16.338;2023-06-26T07:07:35;22.20;99.90
40053;DHT22;25758;48.200;16.338;2023-06-26T07:10:05;22.20;99.90
40053;DHT22;25758;48.200;16.338;2023-06-26T07:12:31;22.40;99.90
40053;DHT22;25758;48.200;16.338;2023-06-26T07:14:57;22.50;99.90
40053;DHT22;25758;48.200;16.338;2023-06-26T07:17:23;22.60;99.90
40053;DHT22;25758;48.200;16.338;2023-06-26T07:19:49;22.70;99.90
40053;DHT22;25758;48.200;16.338;2023-06-26T07:22:15;22.80;99.90
40053;DHT22;25758;48.200;16.338;2023-06-26T07:24:41;22.90;99.70
40053;DHT22;25758;48.200;16.338;2023-06-26T07:27:06;23.10;99.40
40053;DHT22;25758;48.200;16.338;2023-06-26T07:29:32;23.20;99.30
40053;DHT22;25758;48.200;16.338;2023-06-26T07:31:58;23.30;99.40
40053;DHT22;25758;48.200;16.338;2023-06-26T07:34:24;23.50;99.00
40053;DHT22;25758;48.200;16.338;2023-06-26T07:36:49;24.00;97.80
40053;DHT22;25758;48.200;16.338;2023-06-26T07:39:15;24.40;97.60
40053;DHT22;25758;48.200;16.338;2023-06-26T07:41:40;24.90;96.90
40053;DHT22;25758;48.200;16.338;2023-06-26T07:44:06;25.30;95.70
40053;DHT22;25758;48.200;16.338;2023-06-26T07:46:32;25.70;95.30
40053;DHT22;25758;48.200;16.338;2023-06-26T07:48:57;26.10;94.60
40053;DHT22;25758;48.200;16.338;2023-06-26T07:51:23;26.50;94.30
40053;DHT22;25758;48.200;16.338;2023-06-26T07:53:49;26.70;93.40
40053;DHT22;25758;48.200;16.338;2023-06-26T07:56:15;27.00;93.10
40053;DHT22;25758;48.200;16.338;2023-06-26T07:58:40;27.30;92.50
40053;DHT22;25758;48.200;16.338;2023-06-26T08:01:06;27.50;92.00
40053;DHT22;25758;48.200;16.338;2023-06-26T08:03:31;27.70;91.80
40053;DHT22;25758;48.200;16.338;2023-06-26T08:05:57;27.90;91.40
40053;DHT22;25758;48.200;16.338;2023-06-26T08:08:22;28.10;90.60
40053;DHT22;25758;48.200;16.338;2023-06-26T08:10:48;28.30;90.20
40053;DHT22;25758;48.200;16.338;2023-06-26T08:13:14;28.40;90.50
40053;DHT22;25758;48.200;16.338;2023-06-26T08:15:39;28.50;90.00
40053;DHT22;25758;48.200;16.338;2023-06-26T08:18:05;28.40;88.10
40053;DHT22;25758;48.200;16.338;2023-06-26T08:20:30;28.40;87.80
40053;DHT22;25758;48.200;16.338;2023-06-26T08:22:56;28.40;88.30
40053;DHT22;25758;48.200;16.338;2023-06-26T08:25:22;28.40;88.90
40053;DHT22;25758;48.200;16.338;2023-06-26T08:27:47;28.60;88.40
40053;DHT22;25758;48.200;16.338;2023-06-26T08:30:13;28.70;88.10
40053;DHT22;25758;48.200;16.338;2023-06-26T08:32:39;28.80;87.80
40053;DHT22;25758;48.200;16.338;2023-06-26T08:35:06;28.80;87.70
40053;DHT22;25758;48.200;16.338;2023-06-26T08:37:32;28.90;87.50
40053;DHT22;25758;48.200;16.338;2023-06-26T08:39:59;29.00;86.90
40053;DHT22;25758;48.200;16.338;2023-06-26T08:42:25;29.10;88.20
40053;DHT22;25758;48.200;16.338;2023-06-26T08:44:51;29.20;87.60
40053;DHT22;25758;48.200;16.338;2023-06-26T08:47:18;29.30;88.30
40053;DHT22;25758;48.200;16.338;2023-06-26T08:49:51;29.40;87.70
40053;DHT22;25758;48.200;16.338;2023-06-26T08:52:22;29.50;87.80
40053;DHT22;25758;48.200;16.338;2023-06-26T08:54:56;29.50;87.20
40053;DHT22;25758;48.200;16.338;2023-06-26T08:57:23;29.60;87.10
40053;DHT22;25758;48.200;16.338;2023-06-26T08:59:49;29.50;85.80
40053;DHT22;25758;48.200;16.338;2023-06-26T09:02:15;29.40;85.40
40053;DHT22;25758;48.200;16.338;2023-06-26T09:04:41;29.30;85.60
40053;DHT22;25758;48.200;16.338;2023-06-26T09:07:07;29.30;86.60
40053;DHT22;25758;48.200;16.338;2023-06-26T09:09:33;29.40;86.80
40053;DHT22;25758;48.200;16.338;2023-06-26T09:11:58;29.40;85.90
40053;DHT22;25758;48.200;16.338;2023-06-26T09:14:24;29.40;84.30
40053;DHT22;25758;48.200;16.338;2023-06-26T09:16:50;29.50;85.00
40053;DHT22;25758;48.200;16.338;2023-06-26T09:19:16;29.40;84.70
40053;DHT22;25758;48.200;16.338;2023-06-26T09:21:43;29.40;85.10
40053;DHT22;25758;48.200;16.338;2023-06-26T09:24:09;29.50;84.90
40053;DHT22;25758;48.200;16.338;2023-06-26T09:26:39;29.50;84.20
40053;DHT22;25758;48.200;16.338;2023-06-26T09:29:06;29.50;84.20
40053;DHT22;25758;48.200;16.338;2023-06-26T09:31:33;29.60;84.20
40053;DHT22;25758;48.200;16.338;2023-06-26T09:33:59;29.50;83.70
40053;DHT22;25758;48.200;16.338;2023-06-26T09:36:28;29.50;83.70
40053;DHT22;25758;48.200;16.338;2023-06-26T09:38:54;29.60;83.00
40053;DHT22;25758;48.200;16.338;2023-06-26T09:41:20;29.60;83.30
40053;DHT22;25758;48.200;16.338;2023-06-26T09:43:50;29.50;83.30
40053;DHT22;25758;48.200;16.338;2023-06-26T09:46:17;29.60;83.40
40053;DHT22;25758;48.200;16.338;2023-06-26T09:48:43;29.70;83.70
40053;DHT22;25758;48.200;16.338;2023-06-26T09:51:09;29.70;83.00
40053;DHT22;25758;48.200;16.338;2023-06-26T09:53:36;29.70;83.10
40053;DHT22;25758;48.200;16.338;2023-06-26T09:56:08;29.60;82.40
40053;DHT22;25758;48.200;16.338;2023-06-26T09:58:40;29.60;82.30
40053;DHT22;25758;48.200;16.338;2023-06-26T10:01:07;29.60;81.80
40053;DHT22;25758;48.200;16.338;2023-06-26T10:03:35;29.60;82.50
40053;DHT22;25758;48.200;16.338;2023-06-26T10:06:02;29.70;82.40
40053;DHT22;25758;48.200;16.338;2023-06-26T10:08:29;29.70;81.70
40053;DHT22;25758;48.200;16.338;2023-06-26T10:10:57;29.70;81.40
40053;DHT22;25758;48.200;16.338;2023-06-26T10:13:31;29.70;82.00
40053;DHT22;25758;48.200;16.338;2023-06-26T10:15:59;29.80;82.00
40053;DHT22;25758;48.200;16.338;2023-06-26T10:18:26;29.80;81.80
40053;DHT22;25758;48.200;16.338;2023-06-26T10:20:55;29.80;81.70
40053;DHT22;25758;48.200;16.338;2023-06-26T10:23:22;29.80;79.80
40053;DHT22;25758;48.200;16.338;2023-06-26T10:25:48;29.80;80.80
40053;DHT22;25758;48.200;16.338;2023-06-26T10:28:17;29.80;81.00
40053;DHT22;25758;48.200;16.338;2023-06-26T10:30:44;29.80;80.60
40053;DHT22;25758;48.200;16.338;2023-06-26T10:33:12;29.90;81.20
40053;DHT22;25758;48.200;16.338;2023-06-26T10:35:43;29.90;80.70
40053;DHT22;25758;48.200;16.338;2023-06-26T10:38:10;29.90;79.10
40053;DHT22;25758;48.200;16.338;2023-06-26T10:40:43;29.90;79.70
40053;DHT22;25758;48.200;16.338;2023-06-26T10:43:11;29.90;80.20
40053;DHT22;25758;48.200;16.338;2023-06-26T10:45:46;30.00;80.10
40053;DHT22;25758;48.200;16.338;2023-06-26T10:48:15;30.10;80.80
40053;DHT22;25758;48.200;16.338;2023-06-26T10:50:41;30.10;79.30
40053;DHT22;25758;48.200;16.338;2023-06-26T10:55:41;30.00;78.40
40053;DHT22;25758;48.200;16.338;2023-06-26T10:58:26;30.00;78.70
40053;DHT22;25758;48.200;16.338;2023-06-26T11:00:52;30.00;78.70
40053;DHT22;25758;48.200;16.338;2023-06-26T11:03:39;30.00;77.10
40053;DHT22;25758;48.200;16.338;2023-06-26T11:06:12;30.00;78.40
40053;DHT22;25758;48.200;16.338;2023-06-26T11:11:12;29.90;76.90
40053;DHT22;25758;48.200;16.338;2023-06-26T11:13:40;29.90;77.00
40053;DHT22;25758;48.200;16.338;2023-06-26T11:16:05;29.90;77.70
40053;DHT22;25758;48.200;16.338;2023-06-26T11:18:32;29.90;78.10
40053;DHT22;25758;48.200;16.338;2023-06-26T11:21:08;29.90;78.90
40053;DHT22;25758;48.200;16.338;2023-06-26T11:23:35;29.90;79.30
40053;DHT22;25758;48.200;16.338;2023-06-26T11:26:20;29.90;78.70
40053;DHT22;25758;48.200;16.338;2023-06-26T11:28:55;29.80;77.30
40053;DHT22;25758;48.200;16.338;2023-06-26T11:31:28;29.80;78.60
40053;DHT22;25758;48.200;16.338;2023-06-26T11:33:59;29.80;79.10
40053;DHT22;25758;48.200;16.338;2023-06-26T11:36:26;29.80;77.70
40053;DHT22;25758;48.200;16.338;2023-06-26T11:38:56;29.70;78.10
40053;DHT22;25758;48.200;16.338;2023-06-26T11:41:23;29.70;78.80
40053;DHT22;25758;48.200;16.338;2023-06-26T11:43:49;29.70;79.10
40053;DHT22;25758;48.200;16.338;2023-06-26T11:46:21;29.50;77.00
40053;DHT22;25758;48.200;16.338;2023-06-26T11:48:47;29.50;78.40
40053;DHT22;25758;48.200;16.338;2023-06-26T11:51:14;29.40;79.20
40053;DHT22;25758;48.200;16.338;2023-06-26T11:53:43;29.50;79.30
40053;DHT22;25758;48.200;16.338;2023-06-26T11:56:14;29.40;78.50
40053;DHT22;25758;48.200;16.338;2023-06-26T11:59:05;29.40;78.80
40053;DHT22;25758;48.200;16.338;2023-06-26T12:01:36;29.50;79.70
40053;DHT22;25758;48.200;16.338;2023-06-26T12:04:08;29.50;79.90
40053;DHT22;25758;48.200;16.338;2023-06-26T12:06:35;29.50;79.50
40053;DHT22;25758;48.200;16.338;2023-06-26T12:09:02;29.40;78.30
40053;DHT22;25758;48.200;16.338;2023-06-26T12:11:32;29.40;78.20
40053;DHT22;25758;48.200;16.338;2023-06-26T12:13:59;29.30;78.20
40053;DHT22;25758;48.200;16.338;2023-06-26T12:16:27;29.30;79.00
40053;DHT22;25758;48.200;16.338;2023-06-26T12:19:01;29.30;78.40
40053;DHT22;25758;48.200;16.338;2023-06-26T12:21:45;29.20;78.60
40053;DHT22;25758;48.200;16.338;2023-06-26T12:24:16;29.20;79.50
40053;DHT22;25758;48.200;16.338;2023-06-26T12:26:49;29.20;78.60
40053;DHT22;25758;48.200;16.338;2023-06-26T12:29:16;29.10;79.00
40053;DHT22;25758;48.200;16.338;2023-06-26T12:31:53;29.10;78.20
40053;DHT22;25758;48.200;16.338;2023-06-26T12:34:32;29.00;78.70
40053;DHT22;25758;48.200;16.338;2023-06-26T12:37:03;29.00;79.50
40053;DHT22;25758;48.200;16.338;2023-06-26T12:39:30;29.00;79.30
40053;DHT22;25758;48.200;16.338;2023-06-26T12:42:20;29.00;79.60
40053;DHT22;25758;48.200;16.338;2023-06-26T12:44:46;29.00;79.90
40053;DHT22;25758;48.200;16.338;2023-06-26T12:47:14;29.00;80.40
40053;DHT22;25758;48.200;16.338;2023-06-26T12:49:42;29.00;80.40
40053;DHT22;25758;48.200;16.338;2023-06-26T12:52:15;29.00;80.90
40053;DHT22;25758;48.200;16.338;2023-06-26T12:54:42;29.00;81.20
40053;DHT22;25758;48.200;16.338;2023-06-26T12:57:08;29.00;81.50
40053;DHT22;25758;48.200;16.338;2023-06-26T12:59:36;29.10;82.30
40053;DHT22;25758;48.200;16.338;2023-06-26T13:02:02;29.10;81.50
40053;DHT22;25758;48.200;16.338;2023-06-26T13:04:28;29.10;82.10
40053;DHT22;25758;48.200;16.338;2023-06-26T13:06:54;29.10;81.60
40053;DHT22;25758;48.200;16.338;2023-06-26T13:09:20;29.10;81.40
40053;DHT22;25758;48.200;16.338;2023-06-26T13:11:45;29.10;82.30
40053;DHT22;25758;48.200;16.338;2023-06-26T13:14:11;29.00;82.20
40053;DHT22;25758;48.200;16.338;2023-06-26T13:16:37;29.00;82.10
40053;DHT22;25758;48.200;16.338;2023-06-26T13:19:03;29.00;80.90
40053;DHT22;25758;48.200;16.338;2023-06-26T13:21:29;29.00;80.60
40053;DHT22;25758;48.200;16.338;2023-06-26T13:23:55;29.00;81.10
40053;DHT22;25758;48.200;16.338;2023-06-26T13:26:22;29.10;82.30
40053;DHT22;25758;48.200;16.338;2023-06-26T13:28:48;29.10;80.90
40053;DHT22;25758;48.200;16.338;2023-06-26T13:31:14;29.10;81.40
40053;DHT22;25758;48.200;16.338;2023-06-26T13:33:40;29.10;81.80
40053;DHT22;25758;48.200;16.338;2023-06-26T13:36:06;29.10;80.00
40053;DHT22;25758;48.200;16.338;2023-06-26T13:38:34;29.10;81.00
40053;DHT22;25758;48.200;16.338;2023-06-26T13:41:00;29.10;82.40
40053;DHT22;25758;48.200;16.338;2023-06-26T13:43:27;29.10;81.70
40053;DHT22;25758;48.200;16.338;2023-06-26T13:45:53;29.10;81.70
40053;DHT22;25758;48.200;16.338;2023-06-26T13:48:18;29.10;81.60
40053;DHT22;25758;48.200;16.338;2023-06-26T13:50:45;29.10;82.70
40053;DHT22;25758;48.200;16.338;2023-06-26T13:53:11;29.10;81.00
40053;DHT22;25758;48.200;16.338;2023-06-26T13:55:36;29.10;81.40
40053;DHT22;25758;48.200;16.338;2023-06-26T13:58:04;29.10;81.80
40053;DHT22;25758;48.200;16.338;2023-06-26T14:00:31;29.10;81.70
40053;DHT22;25758;48.200;16.338;2023-06-26T14:02:56;29.10;81.50
40053;DHT22;25758;48.200;16.338;2023-06-26T14:05:22;29.10;80.60
40053;DHT22;25758;48.200;16.338;2023-06-26T14:07:48;29.00;80.60
40053;DHT22;25758;48.200;16.338;2023-06-26T14:10:14;28.90;81.00
40053;DHT22;25758;48.200;16.338;2023-06-26T14:12:40;29.00;81.80
40053;DHT22;25758;48.200;16.338;2023-06-26T14:15:06;29.10;82.70
40053;DHT22;25758;48.200;16.338;2023-06-26T14:17:32;29.10;82.40
40053;DHT22;25758;48.200;16.338;2023-06-26T14:19:58;29.20;82.60
40053;DHT22;25758;48.200;16.338;2023-06-26T14:22:24;29.20;82.40
40053;DHT22;25758;48.200;16.338;2023-06-26T14:24:50;29.20;82.30
40053;DHT22;25758;48.200;16.338;2023-06-26T14:27:16;29.10;82.10
40053;DHT22;25758;48.200;16.338;2023-06-26T14:29:41;29.10;82.10
40053;DHT22;25758;48.200;16.338;2023-06-26T14:32:07;29.20;81.60
40053;DHT22;25758;48.200;16.338;2023-06-26T14:34:33;29.20;81.00
40053;DHT22;25758;48.200;16.338;2023-06-26T14:36:59;29.20;81.70
40053;DHT22;25758;48.200;16.338;2023-06-26T14:39:24;29.10;81.00
40053;DHT22;25758;48.200;16.338;2023-06-26T14:41:50;29.10;81.00
40053;DHT22;25758;48.200;16.338;2023-06-26T14:44:16;29.10;81.20
40053;DHT22;25758;48.200;16.338;2023-06-26T14:46:42;29.10;82.20
40053;DHT22;25758;48.200;16.338;2023-06-26T14:49:08;29.10;82.40
40053;DHT22;25758;48.200;16.338;2023-06-26T14:51:34;29.10;82.20
40053;DHT22;25758;48.200;16.338;2023-06-26T14:54:00;29.20;83.40
40053;DHT22;25758;48.200;16.338;2023-06-26T14:56:26;29.10;82.80
40053;DHT22;25758;48.200;16.338;2023-06-26T14:58:52;29.20;82.20
40053;DHT22;25758;48.200;16.338;2023-06-26T15:01:18;29.10;81.90
40053;DHT22;25758;48.200;16.338;2023-06-26T15:03:46;29.10;81.40
40053;DHT22;25758;48.200;16.338;2023-06-26T15:06:11;29.00;81.70
40053;DHT22;25758;48.200;16.338;2023-06-26T15:08:37;29.10;81.90
40053;DHT22;25758;48.200;16.338;2023-06-26T15:11:03;29.00;82.00
40053;DHT22;25758;48.200;16.338;2023-06-26T15:13:28;29.00;82.40
40053;DHT22;25758;48.200;16.338;2023-06-26T15:15:54;29.00;82.40
40053;DHT22;25758;48.200;16.338;2023-06-26T15:18:20;29.00;82.40
40053;DHT22;25758;48.200;16.338;2023-06-26T15:20:45;29.00;82.40
40053;DHT22;25758;48.200;16.338;2023-06-26T15:23:11;29.10;82.40
40053;DHT22;25758;48.200;16.338;2023-06-26T15:25:37;29.10;82.60
40053;DHT22;25758;48.200;16.338;2023-06-26T15:28:06;29.10;80.30
40053;DHT22;25758;48.200;16.338;2023-06-26T15:30:32;29.10;80.80
40053;DHT22;25758;48.200;16.338;2023-06-26T15:32:58;29.10;79.90
40053;DHT22;25758;48.200;16.338;2023-06-26T15:35:23;29.20;79.50
40053;DHT22;25758;48.200;16.338;2023-06-26T15:37:49;29.20;80.00
40053;DHT22;25758;48.200;16.338;2023-06-26T15:40:15;29.10;79.80
40053;DHT22;25758;48.200;16.338;2023-06-26T15:42:49;29.20;80.10
40053;DHT22;25758;48.200;16.338;2023-06-26T15:45:16;29.20;79.50
40053;DHT22;25758;48.200;16.338;2023-06-26T15:47:47;29.20;79.80
40053;DHT22;25758;48.200;16.338;2023-06-26T15:50:13;29.20;79.60
40053;DHT22;25758;48.200;16.338;2023-06-26T15:52:39;29.20;79.40
40053;DHT22;25758;48.200;16.338;2023-06-26T15:55:05;29.30;79.80
40053;DHT22;25758;48.200;16.338;2023-06-26T15:57:31;29.40;79.20
40053;DHT22;25758;48.200;16.338;2023-06-26T15:59:57;29.40;79.20
40053;DHT22;25758;48.200;16.338;2023-06-26T16:02:23;29.40;79.50
40053;DHT22;25758;48.200;16.338;2023-06-26T16:04:49;29.50;79.20
40053;DHT22;25758;48.200;16.338;2023-06-26T16:07:15;29.50;79.20
40053;DHT22;25758;48.200;16.338;2023-06-26T16:09:41;29.50;78.90
40053;DHT22;25758;48.200;16.338;2023-06-26T16:12:07;29.50;78.30
40053;DHT22;25758;48.200;16.338;2023-06-26T16:14:32;29.50;78.10
40053;DHT22;25758;48.200;16.338;2023-06-26T16:16:58;29.50;78.50
40053;DHT22;25758;48.200;16.338;2023-06-26T16:19:24;29.50;79.20
40053;DHT22;25758;48.200;16.338;2023-06-26T16:21:50;29.40;80.80
40053;DHT22;25758;48.200;16.338;2023-06-26T16:24:16;29.40;80.20
40053;DHT22;25758;48.200;16.338;2023-06-26T16:26:41;29.30;79.10
40053;DHT22;25758;48.200;16.338;2023-06-26T16:29:07;29.40;79.40
40053;DHT22;25758;48.200;16.338;2023-06-26T16:31:33;29.30;79.50
40053;DHT22;25758;48.200;16.338;2023-06-26T16:34:00;29.40;80.00
40053;DHT22;25758;48.200;16.338;2023-06-26T16:36:25;29.30;78.60
40053;DHT22;25758;48.200;16.338;2023-06-26T16:38:52;29.30;78.80
40053;DHT22;25758;48.200;16.338;2023-06-26T16:41:18;29.20;78.70
40053;DHT22;25758;48.200;16.338;2023-06-26T16:43:43;29.20;78.90
40053;DHT22;25758;48.200;16.338;2023-06-26T16:46:09;29.20;79.30
40053;DHT22;25758;48.200;16.338;2023-06-26T16:48:34;29.20;79.80
40053;DHT22;25758;48.200;16.338;2023-06-26T16:51:00;29.20;79.60
40053;DHT22;25758;48.200;16.338;2023-06-26T16:53:26;29.20;79.50
40053;DHT22;25758;48.200;16.338;2023-06-26T16:55:51;29.20;78.90
40053;DHT22;25758;48.200;16.338;2023-06-26T16:58:17;29.10;78.50
40053;DHT22;25758;48.200;16.338;2023-06-26T17:00:44;29.00;78.60
40053;DHT22;25758;48.200;16.338;2023-06-26T17:03:10;29.10;79.10
40053;DHT22;25758;48.200;16.338;2023-06-26T17:05:36;29.00;78.80
40053;DHT22;25758;48.200;16.338;2023-06-26T17:08:02;29.00;79.20
40053;DHT22;25758;48.200;16.338;2023-06-26T17:10:29;29.00;80.00
40053;DHT22;25758;48.200;16.338;2023-06-26T17:12:54;29.00;79.30
40053;DHT22;25758;48.200;16.338;2023-06-26T17:15:20;28.90;78.70
40053;DHT22;25758;48.200;16.338;2023-06-26T17:17:48;28.90;78.40
40053;DHT22;25758;48.200;16.338;2023-06-26T17:20:13;28.90;78.60
40053;DHT22;25758;48.200;16.338;2023-06-26T17:22:39;28.90;78.50
40053;DHT22;25758;48.200;16.338;2023-06-26T17:25:06;28.90;78.80
40053;DHT22;25758;48.200;16.338;2023-06-26T17:27:33;28.80;78.70
40053;DHT22;25758;48.200;16.338;2023-06-26T17:30:00;28.80;78.70
40053;DHT22;25758;48.200;16.338;2023-06-26T17:32:26;28.80;79.10
40053;DHT22;25758;48.200;16.338;2023-06-26T17:34:52;28.70;79.30
40053;DHT22;25758;48.200;16.338;2023-06-26T17:37:19;28.70;80.20
40053;DHT22;25758;48.200;16.338;2023-06-26T17:39:45;28.70;79.70
40053;DHT22;25758;48.200;16.338;2023-06-26T17:42:11;28.70;79.90
40053;DHT22;25758;48.200;16.338;2023-06-26T17:44:37;28.60;79.20
40053;DHT22;25758;48.200;16.338;2023-06-26T17:47:03;28.60;79.80
40053;DHT22;25758;48.200;16.338;2023-06-26T17:49:29;28.50;80.20
40053;DHT22;25758;48.200;16.338;2023-06-26T17:51:54;28.50;79.90
40053;DHT22;25758;48.200;16.338;2023-06-26T17:54:20;28.50;79.90
40053;DHT22;25758;48.200;16.338;2023-06-26T17:56:46;28.40;80.40
40053;DHT22;25758;48.200;16.338;2023-06-26T17:59:13;28.30;80.20
40053;DHT22;25758;48.200;16.338;2023-06-26T18:01:39;28.30;80.10
40053;DHT22;25758;48.200;16.338;2023-06-26T18:04:05;28.30;80.30
40053;DHT22;25758;48.200;16.338;2023-06-26T18:06:31;28.30;80.40
40053;DHT22;25758;48.200;16.338;2023-06-26T18:08:56;28.30;80.60
40053;DHT22;25758;48.200;16.338;2023-06-26T18:11:22;28.20;80.60
40053;DHT22;25758;48.200;16.338;2023-06-26T18:13:47;28.20;80.80
40053;DHT22;25758;48.200;16.338;2023-06-26T18:16:13;28.20;80.80
40053;DHT22;25758;48.200;16.338;2023-06-26T18:18:39;28.20;81.20
40053;DHT22;25758;48.200;16.338;2023-06-26T18:21:06;28.10;80.70
40053;DHT22;25758;48.200;16.338;2023-06-26T18:23:32;28.10;81.10
40053;DHT22;25758;48.200;16.338;2023-06-26T18:25:59;28.10;81.60
40053;DHT22;25758;48.200;16.338;2023-06-26T18:28:25;28.10;80.80
40053;DHT22;25758;48.200;16.338;2023-06-26T18:30:51;28.10;80.60
40053;DHT22;25758;48.200;16.338;2023-06-26T18:33:16;28.10;80.70
40053;DHT22;25758;48.200;16.338;2023-06-26T18:35:43;28.10;81.50
40053;DHT22;25758;48.200;16.338;2023-06-26T18:38:09;28.00;82.90
40053;DHT22;25758;48.200;16.338;2023-06-26T18:40:37;27.90;84.20
40053;DHT22;25758;48.200;16.338;2023-06-26T18:43:04;27.80;84.60
40053;DHT22;25758;48.200;16.338;2023-06-26T18:45:29;27.70;84.70
40053;DHT22;25758;48.200;16.338;2023-06-26T18:47:55;27.70;84.90
40053;DHT22;25758;48.200;16.338;2023-06-26T18:50:21;27.60;85.50
40053;DHT22;25758;48.200;16.338;2023-06-26T18:52:55;27.50;86.20
40053;DHT22;25758;48.200;16.338;2023-06-26T18:55:20;27.40;86.50
40053;DHT22;25758;48.200;16.338;2023-06-26T18:57:49;27.30;87.20
40053;DHT22;25758;48.200;16.338;2023-06-26T19:00:16;27.30;87.10
40053;DHT22;25758;48.200;16.338;2023-06-26T19:02:46;27.20;87.40
40053;DHT22;25758;48.200;16.338;2023-06-26T19:05:11;27.20;87.90
40053;DHT22;25758;48.200;16.338;2023-06-26T19:07:40;27.10;88.10
40053;DHT22;25758;48.200;16.338;2023-06-26T19:10:06;27.00;88.50
40053;DHT22;25758;48.200;16.338;2023-06-26T19:12:32;26.90;88.60
40053;DHT22;25758;48.200;16.338;2023-06-26T19:14:57;26.90;88.90
40053;DHT22;25758;48.200;16.338;2023-06-26T19:17:23;26.80;89.20
40053;DHT22;25758;48.200;16.338;2023-06-26T19:19:49;26.80;89.60
40053;DHT22;25758;48.200;16.338;2023-06-26T19:22:14;26.70;89.90
40053;DHT22;25758;48.200;16.338;2023-06-26T19:24:40;26.60;90.10
40053;DHT22;25758;48.200;16.338;2023-06-26T19:27:05;26.60;90.30
40053;DHT22;25758;48.200;16.338;2023-06-26T19:29:31;26.50;90.40
40053;DHT22;25758;48.200;16.338;2023-06-26T19:31:58;26.50;90.50
40053;DHT22;25758;48.200;16.338;2023-06-26T19:34:25;26.50;90.70
40053;DHT22;25758;48.200;16.338;2023-06-26T19:36:51;26.50;90.70
40053;DHT22;25758;48.200;16.338;2023-06-26T19:39:17;26.40;90.80
40053;DHT22;25758;48.200;16.338;2023-06-26T19:41:43;26.40;90.90
40053;DHT22;25758;48.200;16.338;2023-06-26T19:44:09;26.30;90.90
40053;DHT22;25758;48.200;16.338;2023-06-26T19:46:34;26.30;90.90
40053;DHT22;25758;48.200;16.338;2023-06-26T19:49:00;26.30;91.00
40053;DHT22;25758;48.200;16.338;2023-06-26T19:51:26;26.30;91.00
40053;DHT22;25758;48.200;16.338;2023-06-26T19:53:51;26.20;91.00
40053;DHT22;25758;48.200;16.338;2023-06-26T19:56:17;26.20;91.10
40053;DHT22;25758;48.200;16.338;2023-06-26T19:58:43;26.10;91.10
40053;DHT22;25758;48.200;16.338;2023-06-26T20:01:09;26.10;91.20
40053;DHT22;25758;48.200;16.338;2023-06-26T20:03:34;26.10;91.20
40053;DHT22;25758;48.200;16.338;2023-06-26T20:06:00;26.00;91.20
40053;DHT22;25758;48.200;16.338;2023-06-26T20:08:26;26.00;91.30
40053;DHT22;25758;48.200;16.338;2023-06-26T20:10:52;25.90;91.30
40053;DHT22;25758;48.200;16.338;2023-06-26T20:13:18;25.90;91.40
40053;DHT22;25758;48.200;16.338;2023-06-26T20:15:44;25.90;91.50
40053;DHT22;25758;48.200;16.338;2023-06-26T20:18:09;25.90;91.60
40053;DHT22;25758;48.200;16.338;2023-06-26T20:20:35;25.90;91.70
40053;DHT22;25758;48.200;16.338;2023-06-26T20:23:01;25.80;91.70
40053;DHT22;25758;48.200;16.338;2023-06-26T20:25:29;25.80;91.80
40053;DHT22;25758;48.200;16.338;2023-06-26T20:27:55;25.70;91.80
40053;DHT22;25758;48.200;16.338;2023-06-26T20:30:20;25.60;91.90
40053;DHT22;25758;48.200;16.338;2023-06-26T20:32:46;25.50;91.90
40053;DHT22;25758;48.200;16.338;2023-06-26T20:35:12;25.50;92.10
40053;DHT22;25758;48.200;16.338;2023-06-26T20:37:38;25.50;92.20
40053;DHT22;25758;48.200;16.338;2023-06-26T20:40:04;25.50;92.40
40053;DHT22;25758;48.200;16.338;2023-06-26T20:42:30;25.50;92.20
40053;DHT22;25758;48.200;16.338;2023-06-26T20:44:56;25.50;92.20
40053;DHT22;25758;48.200;16.338;2023-06-26T20:47:23;25.50;92.20
40053;DHT22;25758;48.200;16.338;2023-06-26T20:50:02;25.50;92.20
40053;DHT22;25758;48.200;16.338;2023-06-26T20:52:28;25.50;92.20
40053;DHT22;25758;48.200;16.338;2023-06-26T20:54:55;25.40;92.20
40053;DHT22;25758;48.200;16.338;2023-06-26T20:57:21;25.40;92.20
40053;DHT22;25758;48.200;16.338;2023-06-26T20:59:47;25.40;92.30
40053;DHT22;25758;48.200;16.338;2023-06-26T21:02:13;25.40;92.40
40053;DHT22;25758;48.200;16.338;2023-06-26T21:04:38;25.30;92.50
40053;DHT22;25758;48.200;16.338;2023-06-26T21:07:05;25.30;92.50
40053;DHT22;25758;48.200;16.338;2023-06-26T21:09:31;25.20;92.60
40053;DHT22;25758;48.200;16.338;2023-06-26T21:11:58;25.20;92.60
40053;DHT22;25758;48.200;16.338;2023-06-26T21:14:24;25.20;92.70
40053;DHT22;25758;48.200;16.338;2023-06-26T21:16:49;25.10;93.00
40053;DHT22;25758;48.200;16.338;2023-06-26T21:19:15;25.10;92.80
40053;DHT22;25758;48.200;16.338;2023-06-26T21:21:41;25.00;92.90
40053;DHT22;25758;48.200;16.338;2023-06-26T21:24:07;25.10;93.00
40053;DHT22;25758;48.200;16.338;2023-06-26T21:26:34;25.00;93.00